Terminal Aerodrome Forecast
Issued by NWS Portland, OR

Home | Current Version | Previous Version | Text Only | Print | Product List | Glossary On
Versions: 1 2 3 4 5 6 7 8 9 10 11 12 13 14 15 16 17 18 19 20 21 22 23 24 25 26 27 28 29
000
FTUS46 KPQR 021739
TAFHIO
TAF
KHIO 021739Z 0218/0318 29003KT P6SM SCT035 BKN060
     FM022000 31005KT P6SM SCT060
     FM030400 00000KT P6SM SKC
     FM031200 00000KT 3SM BCFG SCT001=

USA.gov is the U.S. government's official web portal to all federal, state and local government web resources and services.